Pagrindinis puslapis
METAR-TAF:

METAR-TAF

Oro uostai :

Kvala Terenganu, Malaizija

platuma: 05-22-53N, ilguma: 103-06-17E, Aukštis: 6 m

Dabartinis oras

Ataskaita buvo paskelbta 44 minutes, ne 13:00 UTC
Vėjas 2 kt nuo kintamojo kryptimis
Temperatūra 28°C
Drėgmė 79%
Slėgis 1011 hPa
Matomumas 10 km arba daugiau
Mažai debesys ne aukštis 2200 ft
Su prošvaistėmis ne aukštis 30000 ft

METAR: WMKN 151300Z VRB02KT 9999 FEW022 BKN300 28/24 Q1011

Laikas: 21:44 (13:44 UTC)

Prognozė

Ataskaita buvo paskelbta 2 valandos ir 44 minutes, ne 11:00 UTC
Prognozė galioja nuo 15 metu 12 UTC su 16 metu 12 UTC
Vėjas 3 kt nuo kintamojo kryptimis
Matomumas 10 km arba daugiau
Mažai debesys ne aukštis 1800 ft
Laikinai
nuo 15 metu 18 UTC su 15 metu 22 UTC
Matomumas: 7000 m
Mažai debesys ne aukštis 500 ft
Mažai debesys ne aukštis 1700 ft, Liūtiniai kamuoliniai debesys.
perkūnija, lietus

TAF: WMKN 151100Z 1512/1612 VRB03KT 9999 FEW018 TEMPO 1518/1522 7000 -TSRA FEW005 FEW017CB

Orai ataskaitas ir orų prognozės (METAR, TAF).

turimą stotys yra geltonos ir raudonos taškus žemėlapyje.

Perkelti pele per norėdami pamatyti stoties vardą.

Tada spustelėkite, norėdami matyti oro stebėjimo ir prognozės.

Norėdami pakeisti žemėlapį: spustelėkite ant žalios mygtukų su juodo kryžiaus žemyn,; žalią mygtuką su brūkšneliu, jei norite nutolinti; arba žalių rodyklių gretimoms žemėlapius.


METAR-TAF: